Neelyton, PA (17239)

7:44 AM EST on January 27, 2015 (GMT -0500)
Edenville | Change Station
CLOSE
Current Station
Personal Weather Station
Location: Chambersburg, PA
Elevation: 958 ft
Nearby Weather Stations

Elev 958 ft 39.96 °N, 77.82 °W | Updated 11 minutes ago

Snow
Snow
22.6 °F
Feels Like 18 °F
N
3.2
Wind Variable Wind from WSW

Today
High -- | Low -- °F
--% Chance of Precip.
Yesterday
High -- | Low -- °F
Precip. -- in
7:24 AM 5:24 PM
First Quarter, 54% visible
Pressure 29.80 in
Visibility 3.0 miles
Clouds Few 1800 ft
Overcast 3100 ft
Windchill 18 °F
Dew Point 21 °F
Humidity 92%
Rainfall 0.00 in
Snow Depth Not available.
UV 0 out of 12
Pollen .10 out of 12
Air Quality Not available.
Flu Activity Not available.
SPECI KAOO 271215Z AUTO 30004KT 3SM -SN BR FEW018 OVC031 M07/M08 A2980 RMK AO2 P0000 T10671083

More Conditions Fewer Conditions

Pressure 29.80 in
Visibility 3.0 miles
Clouds Few 1800 ft
Overcast 3100 ft
Windchill 18 °F
Dew Point 21 °F
Humidity 92%
Rainfall 0.00 in
Snow Depth Not available.
UV 0 out of 12
Pollen .10 out of 12
Air Quality Not available.
Flu Activity Not available.
SPECI KAOO 271215Z AUTO 30004KT 3SM -SN BR FEW018 OVC031 M07/M08 A2980 RMK AO2 P0000 T10671083

More Conditions Fewer Conditions

10-Day Weather Forecast

Almanac

Astronomy

Jan. 27, 2015 Rise Set
Actual Time
Civil Twilight
Nautical Twilight
Astronomical Twilight
Moon
Length of Visible Light
Length of Day
Tomorrow will be .
, % of the Moon is Illuminated

Today's Extremes

State Highs State Lows

Community

WunderPhotos

Upload Photos

1,790,591 photos uploaded!

WunderBlogs® & News

Nearby

Air Quality

  Air Quality AQ Index Pollutant
Not available.

Snow Depth

Station Depth Elevation

Earthquake Activity

City Distance Mag. Time & Date
Minimum magnitude displayed is 2.5.

Coastal Water Temperatures

Place Temperature

Nearby Weather Stations